sensor_id;sensor_type;location;lat;lon;timestamp;P1;durP1;ratioP1;P2;durP2;ratioP2
3321;SDS011;1673;51.388;7.086;2023-06-10T00:01:09;16.63;;;12.80;;
3321;SDS011;1673;51.388;7.086;2023-06-10T00:03:39;15.00;;;11.55;;
3321;SDS011;1673;51.388;7.086;2023-06-10T00:06:10;19.58;;;11.40;;
3321;SDS011;1673;51.388;7.086;2023-06-10T00:08:40;16.20;;;12.00;;
3321;SDS011;1673;51.388;7.086;2023-06-10T00:11:12;14.87;;;12.37;;
3321;SDS011;1673;51.388;7.086;2023-06-10T00:13:42;15.25;;;12.40;;
3321;SDS011;1673;51.388;7.086;2023-06-10T00:16:12;17.02;;;12.23;;
3321;SDS011;1673;51.388;7.086;2023-06-10T00:18:44;15.80;;;12.07;;
3321;SDS011;1673;51.388;7.086;2023-06-10T00:21:15;15.63;;;10.90;;
3321;SDS011;1673;51.388;7.086;2023-06-10T00:23:45;14.83;;;12.30;;
3321;SDS011;1673;51.388;7.086;2023-06-10T00:26:17;14.85;;;11.90;;
3321;SDS011;1673;51.388;7.086;2023-06-10T00:28:48;15.27;;;11.80;;
3321;SDS011;1673;51.388;7.086;2023-06-10T00:31:20;17.25;;;12.80;;
3321;SDS011;1673;51.388;7.086;2023-06-10T00:33:50;17.77;;;12.77;;
3321;SDS011;1673;51.388;7.086;2023-06-10T00:36:20;18.38;;;12.10;;
3321;SDS011;1673;51.388;7.086;2023-06-10T00:38:50;15.90;;;12.60;;
3321;SDS011;1673;51.388;7.086;2023-06-10T00:41:23;14.43;;;11.85;;
3321;SDS011;1673;51.388;7.086;2023-06-10T00:43:53;14.10;;;12.40;;
3321;SDS011;1673;51.388;7.086;2023-06-10T00:46:22;16.20;;;11.80;;
3321;SDS011;1673;51.388;7.086;2023-06-10T00:48:54;13.57;;;11.70;;
3321;SDS011;1673;51.388;7.086;2023-06-10T00:51:24;17.27;;;12.73;;
3321;SDS011;1673;51.388;7.086;2023-06-10T00:53:54;17.92;;;12.50;;
3321;SDS011;1673;51.388;7.086;2023-06-10T00:56:27;18.15;;;12.70;;
3321;SDS011;1673;51.388;7.086;2023-06-10T00:58:58;15.00;;;12.10;;
3321;SDS011;1673;51.388;7.086;2023-06-10T01:01:28;16.30;;;13.25;;
3321;SDS011;1673;51.388;7.086;2023-06-10T01:04:01;16.80;;;12.93;;
3321;SDS011;1673;51.388;7.086;2023-06-10T01:06:32;16.95;;;12.85;;
3321;SDS011;1673;51.388;7.086;2023-06-10T01:09:06;16.15;;;13.07;;
3321;SDS011;1673;51.388;7.086;2023-06-10T01:11:46;16.58;;;12.70;;
3321;SDS011;1673;51.388;7.086;2023-06-10T01:14:19;15.70;;;12.77;;
3321;SDS011;1673;51.388;7.086;2023-06-10T01:16:48;16.87;;;12.80;;
3321;SDS011;1673;51.388;7.086;2023-06-10T01:19:19;16.53;;;12.70;;
3321;SDS011;1673;51.388;7.086;2023-06-10T01:21:53;17.00;;;12.55;;
3321;SDS011;1673;51.388;7.086;2023-06-10T01:24:27;16.33;;;12.35;;
3321;SDS011;1673;51.388;7.086;2023-06-10T01:27:01;17.35;;;13.52;;
3321;SDS011;1673;51.388;7.086;2023-06-10T01:29:36;15.10;;;12.90;;
3321;SDS011;1673;51.388;7.086;2023-06-10T01:32:10;15.68;;;12.88;;
3321;SDS011;1673;51.388;7.086;2023-06-10T01:34:43;18.33;;;12.75;;
3321;SDS011;1673;51.388;7.086;2023-06-10T01:37:17;17.27;;;12.85;;
3321;SDS011;1673;51.388;7.086;2023-06-10T01:39:48;17.03;;;12.50;;
3321;SDS011;1673;51.388;7.086;2023-06-10T01:42:18;16.83;;;12.27;;
3321;SDS011;1673;51.388;7.086;2023-06-10T01:44:49;18.73;;;13.68;;
3321;SDS011;1673;51.388;7.086;2023-06-10T01:47:19;16.83;;;12.63;;
3321;SDS011;1673;51.388;7.086;2023-06-10T01:49:48;17.90;;;12.95;;
3321;SDS011;1673;51.388;7.086;2023-06-10T01:52:24;18.17;;;12.80;;
3321;SDS011;1673;51.388;7.086;2023-06-10T01:54:54;16.48;;;13.13;;
3321;SDS011;1673;51.388;7.086;2023-06-10T01:57:24;17.23;;;13.50;;
3321;SDS011;1673;51.388;7.086;2023-06-10T01:59:54;17.80;;;12.77;;
3321;SDS011;1673;51.388;7.086;2023-06-10T02:02:23;15.82;;;12.60;;
3321;SDS011;1673;51.388;7.086;2023-06-10T02:04:53;18.08;;;12.40;;
3321;SDS011;1673;51.388;7.086;2023-06-10T02:07:26;15.55;;;12.38;;
3321;SDS011;1673;51.388;7.086;2023-06-10T02:09:56;17.55;;;13.07;;
3321;SDS011;1673;51.388;7.086;2023-06-10T02:12:28;17.90;;;13.18;;
3321;SDS011;1673;51.388;7.086;2023-06-10T02:14:58;18.75;;;13.60;;
3321;SDS011;1673;51.388;7.086;2023-06-10T02:17:28;17.60;;;13.95;;
3321;SDS011;1673;51.388;7.086;2023-06-10T02:19:59;18.23;;;14.23;;
3321;SDS011;1673;51.388;7.086;2023-06-10T02:22:33;17.63;;;13.50;;
3321;SDS011;1673;51.388;7.086;2023-06-10T02:25:03;18.20;;;13.80;;
3321;SDS011;1673;51.388;7.086;2023-06-10T02:27:35;19.80;;;13.45;;
3321;SDS011;1673;51.388;7.086;2023-06-10T02:30:05;16.63;;;12.80;;
3321;SDS011;1673;51.388;7.086;2023-06-10T02:32:37;19.40;;;14.13;;
3321;SDS011;1673;51.388;7.086;2023-06-10T02:35:08;18.40;;;13.97;;
3321;SDS011;1673;51.388;7.086;2023-06-10T02:37:42;17.15;;;13.32;;
3321;SDS011;1673;51.388;7.086;2023-06-10T02:40:12;16.58;;;12.90;;
3321;SDS011;1673;51.388;7.086;2023-06-10T02:42:42;17.83;;;12.80;;
3321;SDS011;1673;51.388;7.086;2023-06-10T02:45:13;17.65;;;13.30;;
3321;SDS011;1673;51.388;7.086;2023-06-10T02:47:43;19.03;;;13.50;;
3321;SDS011;1673;51.388;7.086;2023-06-10T02:50:13;15.30;;;12.70;;
3321;SDS011;1673;51.388;7.086;2023-06-10T02:52:59;17.88;;;14.20;;
3321;SDS011;1673;51.388;7.086;2023-06-10T02:55:30;16.55;;;13.18;;
3321;SDS011;1673;51.388;7.086;2023-06-10T02:58:04;22.70;;;14.00;;
3321;SDS011;1673;51.388;7.086;2023-06-10T03:00:34;24.15;;;13.98;;
3321;SDS011;1673;51.388;7.086;2023-06-10T03:03:04;18.27;;;13.60;;
3321;SDS011;1673;51.388;7.086;2023-06-10T03:05:43;17.45;;;13.30;;
3321;SDS011;1673;51.388;7.086;2023-06-10T03:08:16;18.37;;;14.03;;
3321;SDS011;1673;51.388;7.086;2023-06-10T03:10:46;17.83;;;13.47;;
3321;SDS011;1673;51.388;7.086;2023-06-10T03:13:18;16.95;;;14.00;;
3321;SDS011;1673;51.388;7.086;2023-06-10T03:15:48;21.58;;;14.25;;
3321;SDS011;1673;51.388;7.086;2023-06-10T03:18:20;20.50;;;14.60;;
3321;SDS011;1673;51.388;7.086;2023-06-10T03:20:50;19.20;;;14.70;;
3321;SDS011;1673;51.388;7.086;2023-06-10T03:23:26;17.65;;;14.00;;
3321;SDS011;1673;51.388;7.086;2023-06-10T03:25:57;17.00;;;13.85;;
3321;SDS011;1673;51.388;7.086;2023-06-10T03:28:28;19.80;;;14.73;;
3321;SDS011;1673;51.388;7.086;2023-06-10T03:30:58;18.45;;;14.57;;
3321;SDS011;1673;51.388;7.086;2023-06-10T03:33:31;17.77;;;14.50;;
3321;SDS011;1673;51.388;7.086;2023-06-10T03:36:00;22.85;;;14.98;;
3321;SDS011;1673;51.388;7.086;2023-06-10T03:38:33;19.57;;;14.30;;
3321;SDS011;1673;51.388;7.086;2023-06-10T03:41:04;20.05;;;13.77;;
3321;SDS011;1673;51.388;7.086;2023-06-10T03:43:35;19.42;;;15.20;;
3321;SDS011;1673;51.388;7.086;2023-06-10T03:46:06;17.50;;;14.23;;
3321;SDS011;1673;51.388;7.086;2023-06-10T03:48:37;18.52;;;14.07;;
3321;SDS011;1673;51.388;7.086;2023-06-10T03:51:08;18.45;;;13.60;;
3321;SDS011;1673;51.388;7.086;2023-06-10T03:53:40;18.73;;;14.45;;
3321;SDS011;1673;51.388;7.086;2023-06-10T03:56:10;17.55;;;13.30;;
3321;SDS011;1673;51.388;7.086;2023-06-10T03:58:40;18.60;;;14.13;;
3321;SDS011;1673;51.388;7.086;2023-06-10T04:01:13;20.92;;;15.40;;
3321;SDS011;1673;51.388;7.086;2023-06-10T04:03:47;19.80;;;15.18;;
3321;SDS011;1673;51.388;7.086;2023-06-10T04:06:20;20.25;;;15.57;;
3321;SDS011;1673;51.388;7.086;2023-06-10T04:08:56;17.80;;;14.63;;
3321;SDS011;1673;51.388;7.086;2023-06-10T04:11:27;21.92;;;16.17;;
3321;SDS011;1673;51.388;7.086;2023-06-10T04:13:58;20.80;;;14.98;;
3321;SDS011;1673;51.388;7.086;2023-06-10T04:16:29;20.20;;;15.60;;
3321;SDS011;1673;51.388;7.086;2023-06-10T04:19:00;20.50;;;14.70;;
3321;SDS011;1673;51.388;7.086;2023-06-10T04:21:30;19.58;;;15.13;;
3321;SDS011;1673;51.388;7.086;2023-06-10T04:24:02;19.40;;;14.25;;
3321;SDS011;1673;51.388;7.086;2023-06-10T04:26:34;21.60;;;15.60;;
3321;SDS011;1673;51.388;7.086;2023-06-10T04:29:04;19.30;;;15.55;;
3321;SDS011;1673;51.388;7.086;2023-06-10T04:31:34;20.98;;;15.80;;
3321;SDS011;1673;51.388;7.086;2023-06-10T04:34:04;18.50;;;14.70;;
3321;SDS011;1673;51.388;7.086;2023-06-10T04:36:34;20.08;;;14.93;;
3321;SDS011;1673;51.388;7.086;2023-06-10T04:39:07;19.55;;;15.68;;
3321;SDS011;1673;51.388;7.086;2023-06-10T04:41:38;21.42;;;16.45;;
3321;SDS011;1673;51.388;7.086;2023-06-10T04:44:08;21.58;;;15.63;;
3321;SDS011;1673;51.388;7.086;2023-06-10T04:46:37;21.75;;;16.85;;
3321;SDS011;1673;51.388;7.086;2023-06-10T04:49:08;18.90;;;15.38;;
3321;SDS011;1673;51.388;7.086;2023-06-10T04:51:40;18.65;;;14.80;;
3321;SDS011;1673;51.388;7.086;2023-06-10T04:54:14;22.23;;;16.08;;
3321;SDS011;1673;51.388;7.086;2023-06-10T04:56:43;21.98;;;16.33;;
3321;SDS011;1673;51.388;7.086;2023-06-10T04:59:13;22.87;;;16.07;;
3321;SDS011;1673;51.388;7.086;2023-06-10T05:01:43;21.05;;;16.17;;
3321;SDS011;1673;51.388;7.086;2023-06-10T05:04:13;21.98;;;16.30;;
3321;SDS011;1673;51.388;7.086;2023-06-10T05:06:43;21.17;;;16.25;;
3321;SDS011;1673;51.388;7.086;2023-06-10T05:09:15;23.40;;;16.80;;
3321;SDS011;1673;51.388;7.086;2023-06-10T05:11:45;21.98;;;16.52;;
3321;SDS011;1673;51.388;7.086;2023-06-10T05:14:14;20.48;;;15.80;;
3321;SDS011;1673;51.388;7.086;2023-06-10T05:16:47;22.00;;;15.90;;
3321;SDS011;1673;51.388;7.086;2023-06-10T05:19:17;24.08;;;17.92;;
3321;SDS011;1673;51.388;7.086;2023-06-10T05:21:47;20.80;;;16.33;;
3321;SDS011;1673;51.388;7.086;2023-06-10T05:24:19;26.90;;;17.87;;
3321;SDS011;1673;51.388;7.086;2023-06-10T05:26:49;22.65;;;16.33;;
3321;SDS011;1673;51.388;7.086;2023-06-10T05:29:19;22.58;;;16.50;;
3321;SDS011;1673;51.388;7.086;2023-06-10T05:31:49;22.17;;;16.75;;
3321;SDS011;1673;51.388;7.086;2023-06-10T05:34:19;22.05;;;17.00;;
3321;SDS011;1673;51.388;7.086;2023-06-10T05:36:49;23.10;;;16.80;;
3321;SDS011;1673;51.388;7.086;2023-06-10T05:39:21;23.65;;;16.95;;
3321;SDS011;1673;51.388;7.086;2023-06-10T05:41:51;24.90;;;18.25;;
3321;SDS011;1673;51.388;7.086;2023-06-10T05:44:21;24.05;;;16.42;;
3321;SDS011;1673;51.388;7.086;2023-06-10T05:46:50;20.45;;;16.65;;
3321;SDS011;1673;51.388;7.086;2023-06-10T05:49:20;22.35;;;16.38;;
3321;SDS011;1673;51.388;7.086;2023-06-10T05:51:50;25.83;;;18.27;;
3321;SDS011;1673;51.388;7.086;2023-06-10T05:54:25;25.60;;;17.80;;
3321;SDS011;1673;51.388;7.086;2023-06-10T05:56:55;26.38;;;17.65;;
3321;SDS011;1673;51.388;7.086;2023-06-10T05:59:25;23.13;;;18.00;;
3321;SDS011;1673;51.388;7.086;2023-06-10T06:01:55;20.83;;;16.23;;
3321;SDS011;1673;51.388;7.086;2023-06-10T06:04:25;22.42;;;17.50;;
3321;SDS011;1673;51.388;7.086;2023-06-10T06:06:54;23.77;;;16.95;;
3321;SDS011;1673;51.388;7.086;2023-06-10T06:09:27;24.52;;;16.63;;
3321;SDS011;1673;51.388;7.086;2023-06-10T06:11:57;25.35;;;16.80;;
3321;SDS011;1673;51.388;7.086;2023-06-10T06:14:26;27.38;;;17.80;;
3321;SDS011;1673;51.388;7.086;2023-06-10T06:17:00;21.65;;;17.05;;
3321;SDS011;1673;51.388;7.086;2023-06-10T06:19:29;23.85;;;15.98;;
3321;SDS011;1673;51.388;7.086;2023-06-10T06:21:59;21.77;;;16.33;;
3321;SDS011;1673;51.388;7.086;2023-06-10T06:24:31;23.50;;;16.55;;
3321;SDS011;1673;51.388;7.086;2023-06-10T06:27:02;21.92;;;16.48;;
3321;SDS011;1673;51.388;7.086;2023-06-10T06:29:32;22.35;;;16.30;;
3321;SDS011;1673;51.388;7.086;2023-06-10T06:32:02;23.23;;;16.58;;
3321;SDS011;1673;51.388;7.086;2023-06-10T06:34:32;24.90;;;16.67;;
3321;SDS011;1673;51.388;7.086;2023-06-10T06:37:03;20.25;;;15.38;;
3321;SDS011;1673;51.388;7.086;2023-06-10T06:39:38;21.75;;;15.27;;
3321;SDS011;1673;51.388;7.086;2023-06-10T06:42:08;20.48;;;14.30;;
3321;SDS011;1673;51.388;7.086;2023-06-10T06:44:58;18.65;;;13.95;;
3321;SDS011;1673;51.388;7.086;2023-06-10T06:47:28;17.63;;;13.73;;
3321;SDS011;1673;51.388;7.086;2023-06-10T06:49:58;19.88;;;13.45;;
3321;SDS011;1673;51.388;7.086;2023-06-10T06:52:28;17.15;;;13.05;;
3321;SDS011;1673;51.388;7.086;2023-06-10T06:55:01;19.58;;;13.00;;
3321;SDS011;1673;51.388;7.086;2023-06-10T06:57:30;19.45;;;13.13;;
3321;SDS011;1673;51.388;7.086;2023-06-10T07:00:01;17.38;;;11.98;;
3321;SDS011;1673;51.388;7.086;2023-06-10T07:02:31;16.65;;;11.77;;
3321;SDS011;1673;51.388;7.086;2023-06-10T07:05:01;22.10;;;12.65;;
3321;SDS011;1673;51.388;7.086;2023-06-10T07:07:32;16.90;;;11.60;;
3321;SDS011;1673;51.388;7.086;2023-06-10T07:10:05;16.48;;;11.18;;
3321;SDS011;1673;51.388;7.086;2023-06-10T07:12:36;15.27;;;11.37;;
3321;SDS011;1673;51.388;7.086;2023-06-10T07:15:06;14.38;;;11.23;;
3321;SDS011;1673;51.388;7.086;2023-06-10T07:17:37;16.30;;;10.43;;
3321;SDS011;1673;51.388;7.086;2023-06-10T07:20:07;14.73;;;10.13;;
3321;SDS011;1673;51.388;7.086;2023-06-10T07:22:38;17.23;;;10.75;;
3321;SDS011;1673;51.388;7.086;2023-06-10T07:25:11;15.82;;;10.65;;
3321;SDS011;1673;51.388;7.086;2023-06-10T07:27:42;16.10;;;9.70;;
3321;SDS011;1673;51.388;7.086;2023-06-10T07:30:12;14.18;;;10.10;;
3321;SDS011;1673;51.388;7.086;2023-06-10T07:32:42;15.05;;;10.10;;
3321;SDS011;1673;51.388;7.086;2023-06-10T07:35:13;12.48;;;9.00;;
3321;SDS011;1673;51.388;7.086;2023-06-10T07:37:43;20.80;;;9.50;;
3321;SDS011;1673;51.388;7.086;2023-06-10T07:40:16;15.25;;;9.07;;
3321;SDS011;1673;51.388;7.086;2023-06-10T07:42:46;15.30;;;8.80;;
3321;SDS011;1673;51.388;7.086;2023-06-10T07:45:16;15.80;;;8.50;;
3321;SDS011;1673;51.388;7.086;2023-06-10T07:47:45;13.52;;;8.63;;
3321;SDS011;1673;51.388;7.086;2023-06-10T07:50:15;12.65;;;9.00;;
3321;SDS011;1673;51.388;7.086;2023-06-10T07:52:45;14.73;;;9.20;;
3321;SDS011;1673;51.388;7.086;2023-06-10T07:55:17;12.90;;;9.00;;
3321;SDS011;1673;51.388;7.086;2023-06-10T07:57:47;13.73;;;8.50;;
3321;SDS011;1673;51.388;7.086;2023-06-10T08:00:17;11.53;;;8.43;;
3321;SDS011;1673;51.388;7.086;2023-06-10T08:02:48;13.23;;;8.88;;
3321;SDS011;1673;51.388;7.086;2023-06-10T08:05:18;14.43;;;8.80;;
3321;SDS011;1673;51.388;7.086;2023-06-10T08:07:48;10.65;;;7.70;;
3321;SDS011;1673;51.388;7.086;2023-06-10T08:10:24;13.18;;;8.30;;
3321;SDS011;1673;51.388;7.086;2023-06-10T08:12:53;10.55;;;7.60;;
3321;SDS011;1673;51.388;7.086;2023-06-10T08:15:23;10.95;;;8.05;;
3321;SDS011;1673;51.388;7.086;2023-06-10T08:17:53;15.20;;;7.95;;
3321;SDS011;1673;51.388;7.086;2023-06-10T08:20:23;11.32;;;8.00;;
3321;SDS011;1673;51.388;7.086;2023-06-10T08:22:53;11.65;;;7.63;;
3321;SDS011;1673;51.388;7.086;2023-06-10T08:25:26;13.65;;;7.50;;
3321;SDS011;1673;51.388;7.086;2023-06-10T08:27:55;15.30;;;8.18;;
3321;SDS011;1673;51.388;7.086;2023-06-10T08:30:25;12.80;;;8.07;;
3321;SDS011;1673;51.388;7.086;2023-06-10T08:32:55;14.25;;;7.65;;
3321;SDS011;1673;51.388;7.086;2023-06-10T08:35:25;12.32;;;8.00;;
3321;SDS011;1673;51.388;7.086;2023-06-10T08:37:55;11.97;;;7.80;;
3321;SDS011;1673;51.388;7.086;2023-06-10T08:40:27;10.88;;;7.80;;
3321;SDS011;1673;51.388;7.086;2023-06-10T08:43:00;12.45;;;7.97;;
3321;SDS011;1673;51.388;7.086;2023-06-10T08:45:35;12.15;;;7.70;;
3321;SDS011;1673;51.388;7.086;2023-06-10T08:48:05;13.50;;;8.48;;
3321;SDS011;1673;51.388;7.086;2023-06-10T08:50:38;11.27;;;7.80;;
3321;SDS011;1673;51.388;7.086;2023-06-10T08:53:08;11.40;;;7.43;;
3321;SDS011;1673;51.388;7.086;2023-06-10T08:55:41;11.25;;;7.70;;
3321;SDS011;1673;51.388;7.086;2023-06-10T08:58:11;11.20;;;8.00;;
3321;SDS011;1673;51.388;7.086;2023-06-10T09:00:42;13.20;;;8.60;;
3321;SDS011;1673;51.388;7.086;2023-06-10T09:03:12;11.45;;;7.55;;
3321;SDS011;1673;51.388;7.086;2023-06-10T09:05:42;12.63;;;8.02;;
3321;SDS011;1673;51.388;7.086;2023-06-10T09:08:12;11.15;;;7.88;;
3321;SDS011;1673;51.388;7.086;2023-06-10T09:10:45;12.93;;;7.90;;
3321;SDS011;1673;51.388;7.086;2023-06-10T09:13:15;13.02;;;7.70;;
3321;SDS011;1673;51.388;7.086;2023-06-10T09:15:45;19.70;;;8.50;;
3321;SDS011;1673;51.388;7.086;2023-06-10T09:18:15;13.33;;;8.20;;
3321;SDS011;1673;51.388;7.086;2023-06-10T09:20:45;16.05;;;7.80;;
3321;SDS011;1673;51.388;7.086;2023-06-10T09:23:15;13.43;;;8.02;;
3321;SDS011;1673;51.388;7.086;2023-06-10T09:25:53;17.95;;;7.70;;
3321;SDS011;1673;51.388;7.086;2023-06-10T09:28:26;10.63;;;8.30;;
3321;SDS011;1673;51.388;7.086;2023-06-10T09:31:02;10.40;;;7.40;;
3321;SDS011;1673;51.388;7.086;2023-06-10T09:33:36;12.43;;;8.02;;
3321;SDS011;1673;51.388;7.086;2023-06-10T09:36:07;12.68;;;7.70;;
3321;SDS011;1673;51.388;7.086;2023-06-10T09:38:37;13.18;;;7.60;;
3321;SDS011;1673;51.388;7.086;2023-06-10T09:41:09;12.07;;;7.25;;
3321;SDS011;1673;51.388;7.086;2023-06-10T09:43:42;11.85;;;7.90;;
3321;SDS011;1673;51.388;7.086;2023-06-10T09:46:16;13.43;;;7.35;;
3321;SDS011;1673;51.388;7.086;2023-06-10T09:48:47;11.77;;;7.50;;
3321;SDS011;1673;51.388;7.086;2023-06-10T09:51:17;10.90;;;7.63;;
3321;SDS011;1673;51.388;7.086;2023-06-10T09:53:47;12.18;;;8.00;;
3321;SDS011;1673;51.388;7.086;2023-06-10T09:56:21;12.40;;;7.90;;
3321;SDS011;1673;51.388;7.086;2023-06-10T09:58:52;10.98;;;7.20;;
3321;SDS011;1673;51.388;7.086;2023-06-10T10:01:23;11.30;;;7.70;;
3321;SDS011;1673;51.388;7.086;2023-06-10T10:03:53;14.20;;;8.20;;
3321;SDS011;1673;51.388;7.086;2023-06-10T10:06:23;12.93;;;8.00;;
3321;SDS011;1673;51.388;7.086;2023-06-10T10:08:53;14.48;;;7.82;;
3321;SDS011;1673;51.388;7.086;2023-06-10T10:11:25;13.00;;;7.85;;
3321;SDS011;1673;51.388;7.086;2023-06-10T10:13:56;11.90;;;7.63;;
3321;SDS011;1673;51.388;7.086;2023-06-10T10:16:29;11.05;;;7.43;;
3321;SDS011;1673;51.388;7.086;2023-06-10T10:19:08;11.50;;;7.10;;
3321;SDS011;1673;51.388;7.086;2023-06-10T10:21:43;12.32;;;7.20;;
3321;SDS011;1673;51.388;7.086;2023-06-10T10:24:15;10.15;;;7.55;;
3321;SDS011;1673;51.388;7.086;2023-06-10T10:26:50;12.00;;;7.20;;
3321;SDS011;1673;51.388;7.086;2023-06-10T10:29:22;10.50;;;7.43;;
3321;SDS011;1673;51.388;7.086;2023-06-10T10:31:53;11.43;;;7.88;;
3321;SDS011;1673;51.388;7.086;2023-06-10T10:34:29;13.70;;;7.50;;
3321;SDS011;1673;51.388;7.086;2023-06-10T10:37:02;10.50;;;7.07;;
3321;SDS011;1673;51.388;7.086;2023-06-10T10:39:33;13.57;;;7.90;;
3321;SDS011;1673;51.388;7.086;2023-06-10T10:42:06;13.43;;;7.75;;
3321;SDS011;1673;51.388;7.086;2023-06-10T10:44:38;11.97;;;7.30;;
3321;SDS011;1673;51.388;7.086;2023-06-10T10:47:08;9.77;;;7.65;;
3321;SDS011;1673;51.388;7.086;2023-06-10T10:49:38;16.33;;;7.72;;
3321;SDS011;1673;51.388;7.086;2023-06-10T10:52:11;13.60;;;8.00;;
3321;SDS011;1673;51.388;7.086;2023-06-10T10:54:43;14.03;;;7.47;;
3321;SDS011;1673;51.388;7.086;2023-06-10T10:57:17;12.23;;;7.72;;
3321;SDS011;1673;51.388;7.086;2023-06-10T10:59:57;10.50;;;7.40;;
3321;SDS011;1673;51.388;7.086;2023-06-10T11:02:32;10.85;;;7.03;;
3321;SDS011;1673;51.388;7.086;2023-06-10T11:05:05;13.05;;;7.75;;
3321;SDS011;1673;51.388;7.086;2023-06-10T11:07:37;11.95;;;8.02;;
3321;SDS011;1673;51.388;7.086;2023-06-10T11:10:08;9.23;;;6.97;;
3321;SDS011;1673;51.388;7.086;2023-06-10T11:12:53;9.20;;;7.50;;
3321;SDS011;1673;51.388;7.086;2023-06-10T11:15:26;11.93;;;7.35;;
3321;SDS011;1673;51.388;7.086;2023-06-10T11:18:06;11.40;;;7.20;;
3321;SDS011;1673;51.388;7.086;2023-06-10T11:20:50;11.77;;;7.13;;
3321;SDS011;1673;51.388;7.086;2023-06-10T11:23:25;10.70;;;7.38;;
3321;SDS011;1673;51.388;7.086;2023-06-10T11:26:09;10.80;;;7.65;;
3321;SDS011;1673;51.388;7.086;2023-06-10T11:31:42;11.30;;;6.90;;
3321;SDS011;1673;51.388;7.086;2023-06-10T11:34:20;15.25;;;7.20;;
3321;SDS011;1673;51.388;7.086;2023-06-10T11:36:53;10.15;;;7.50;;
3321;SDS011;1673;51.388;7.086;2023-06-10T11:39:24;11.05;;;7.50;;
3321;SDS011;1673;51.388;7.086;2023-06-10T11:41:54;12.38;;;7.80;;
3321;SDS011;1673;51.388;7.086;2023-06-10T11:44:27;11.40;;;7.70;;
3321;SDS011;1673;51.388;7.086;2023-06-10T11:46:58;11.15;;;8.13;;
3321;SDS011;1673;51.388;7.086;2023-06-10T11:49:28;10.95;;;7.30;;
3321;SDS011;1673;51.388;7.086;2023-06-10T11:51:58;12.32;;;8.20;;
3321;SDS011;1673;51.388;7.086;2023-06-10T11:54:28;10.18;;;7.88;;
3321;SDS011;1673;51.388;7.086;2023-06-10T11:56:58;11.02;;;8.00;;
3321;SDS011;1673;51.388;7.086;2023-06-10T11:59:32;9.95;;;7.90;;
3321;SDS011;1673;51.388;7.086;2023-06-10T12:02:02;12.17;;;8.33;;
3321;SDS011;1673;51.388;7.086;2023-06-10T12:04:35;10.80;;;7.55;;
3321;SDS011;1673;51.388;7.086;2023-06-10T12:07:05;11.23;;;7.70;;
3321;SDS011;1673;51.388;7.086;2023-06-10T12:09:35;11.15;;;7.55;;
3321;SDS011;1673;51.388;7.086;2023-06-10T12:12:05;10.20;;;7.50;;
3321;SDS011;1673;51.388;7.086;2023-06-10T12:14:53;12.13;;;7.80;;
3321;SDS011;1673;51.388;7.086;2023-06-10T12:17:35;12.10;;;7.60;;
3321;SDS011;1673;51.388;7.086;2023-06-10T12:20:06;10.77;;;8.00;;
3321;SDS011;1673;51.388;7.086;2023-06-10T12:22:38;10.25;;;7.90;;
3321;SDS011;1673;51.388;7.086;2023-06-10T12:25:09;9.93;;;7.57;;
3321;SDS011;1673;51.388;7.086;2023-06-10T12:27:49;14.27;;;8.43;;
3321;SDS011;1673;51.388;7.086;2023-06-10T12:30:23;13.35;;;8.20;;
3321;SDS011;1673;51.388;7.086;2023-06-10T12:32:53;9.83;;;7.50;;
3321;SDS011;1673;51.388;7.086;2023-06-10T12:35:24;12.00;;;8.47;;
3321;SDS011;1673;51.388;7.086;2023-06-10T12:37:56;11.57;;;8.50;;
3321;SDS011;1673;51.388;7.086;2023-06-10T12:40:27;12.53;;;8.70;;
3321;SDS011;1673;51.388;7.086;2023-06-10T12:42:58;10.50;;;7.70;;
3321;SDS011;1673;51.388;7.086;2023-06-10T12:45:31;13.45;;;7.68;;
3321;SDS011;1673;51.388;7.086;2023-06-10T12:48:05;9.10;;;7.90;;
3321;SDS011;1673;51.388;7.086;2023-06-10T12:50:37;10.10;;;8.00;;
3321;SDS011;1673;51.388;7.086;2023-06-10T12:53:07;12.82;;;7.70;;
3321;SDS011;1673;51.388;7.086;2023-06-10T12:55:37;11.68;;;8.20;;
3321;SDS011;1673;51.388;7.086;2023-06-10T12:58:07;14.40;;;8.30;;
3321;SDS011;1673;51.388;7.086;2023-06-10T13:00:40;11.77;;;7.57;;
3321;SDS011;1673;51.388;7.086;2023-06-10T13:03:10;9.25;;;7.93;;
3321;SDS011;1673;51.388;7.086;2023-06-10T13:05:40;11.25;;;7.22;;
3321;SDS011;1673;51.388;7.086;2023-06-10T13:08:10;11.95;;;8.68;;
3321;SDS011;1673;51.388;7.086;2023-06-10T13:10:40;12.10;;;7.90;;
3321;SDS011;1673;51.388;7.086;2023-06-10T13:13:10;11.00;;;7.47;;
3321;SDS011;1673;51.388;7.086;2023-06-10T13:15:43;11.13;;;8.50;;
3321;SDS011;1673;51.388;7.086;2023-06-10T13:18:13;13.77;;;8.10;;
3321;SDS011;1673;51.388;7.086;2023-06-10T13:20:44;10.38;;;7.68;;
3321;SDS011;1673;51.388;7.086;2023-06-10T13:23:15;11.93;;;7.60;;
3321;SDS011;1673;51.388;7.086;2023-06-10T13:25:44;9.70;;;7.60;;
3321;SDS011;1673;51.388;7.086;2023-06-10T13:28:14;10.00;;;7.65;;
3321;SDS011;1673;51.388;7.086;2023-06-10T13:30:47;14.65;;;8.13;;
3321;SDS011;1673;51.388;7.086;2023-06-10T13:33:17;11.90;;;8.05;;
3321;SDS011;1673;51.388;7.086;2023-06-10T13:35:47;12.23;;;7.47;;
3321;SDS011;1673;51.388;7.086;2023-06-10T13:38:17;11.60;;;7.22;;
3321;SDS011;1673;51.388;7.086;2023-06-10T13:40:47;11.33;;;7.80;;
3321;SDS011;1673;51.388;7.086;2023-06-10T13:43:17;11.38;;;7.70;;
3321;SDS011;1673;51.388;7.086;2023-06-10T13:45:50;11.60;;;7.40;;
3321;SDS011;1673;51.388;7.086;2023-06-10T13:48:20;9.85;;;7.30;;
3321;SDS011;1673;51.388;7.086;2023-06-10T13:50:49;11.27;;;7.65;;
3321;SDS011;1673;51.388;7.086;2023-06-10T13:53:19;10.07;;;7.50;;
3321;SDS011;1673;51.388;7.086;2023-06-10T13:55:49;12.90;;;8.60;;
3321;SDS011;1673;51.388;7.086;2023-06-10T13:58:19;11.10;;;8.05;;
3321;SDS011;1673;51.388;7.086;2023-06-10T14:00:51;8.93;;;7.45;;
3321;SDS011;1673;51.388;7.086;2023-06-10T14:03:21;9.27;;;7.17;;
3321;SDS011;1673;51.388;7.086;2023-06-10T14:05:51;10.95;;;8.32;;
3321;SDS011;1673;51.388;7.086;2023-06-10T14:08:21;12.52;;;7.80;;
3321;SDS011;1673;51.388;7.086;2023-06-10T14:10:50;12.90;;;7.88;;
3321;SDS011;1673;51.388;7.086;2023-06-10T14:13:20;9.48;;;7.80;;
3321;SDS011;1673;51.388;7.086;2023-06-10T14:15:52;14.87;;;8.03;;
3321;SDS011;1673;51.388;7.086;2023-06-10T14:18:22;11.70;;;8.30;;
3321;SDS011;1673;51.388;7.086;2023-06-10T14:20:52;11.90;;;8.10;;
3321;SDS011;1673;51.388;7.086;2023-06-10T14:23:22;11.00;;;8.30;;
3321;SDS011;1673;51.388;7.086;2023-06-10T14:25:55;9.43;;;7.60;;
3321;SDS011;1673;51.388;7.086;2023-06-10T14:28:25;10.00;;;7.43;;
3321;SDS011;1673;51.388;7.086;2023-06-10T14:30:58;10.25;;;7.80;;
3321;SDS011;1673;51.388;7.086;2023-06-10T14:33:27;13.63;;;7.53;;
3321;SDS011;1673;51.388;7.086;2023-06-10T14:35:58;12.10;;;8.18;;
3321;SDS011;1673;51.388;7.086;2023-06-10T14:38:27;10.25;;;7.55;;
3321;SDS011;1673;51.388;7.086;2023-06-10T14:40:57;11.93;;;7.40;;
3321;SDS011;1673;51.388;7.086;2023-06-10T14:43:27;12.40;;;7.30;;
3321;SDS011;1673;51.388;7.086;2023-06-10T14:46:00;12.02;;;7.70;;
3321;SDS011;1673;51.388;7.086;2023-06-10T14:48:30;10.15;;;7.57;;
3321;SDS011;1673;51.388;7.086;2023-06-10T14:51:00;9.47;;;7.57;;
3321;SDS011;1673;51.388;7.086;2023-06-10T14:53:30;10.80;;;7.40;;
3321;SDS011;1673;51.388;7.086;2023-06-10T14:55:59;15.18;;;8.02;;
3321;SDS011;1673;51.388;7.086;2023-06-10T14:58:29;14.82;;;8.13;;
3321;SDS011;1673;51.388;7.086;2023-06-10T15:01:01;10.55;;;7.60;;
3321;SDS011;1673;51.388;7.086;2023-06-10T15:03:31;11.38;;;7.97;;
3321;SDS011;1673;51.388;7.086;2023-06-10T15:06:01;9.27;;;7.28;;
3321;SDS011;1673;51.388;7.086;2023-06-10T15:08:31;13.00;;;7.38;;
3321;SDS011;1673;51.388;7.086;2023-06-10T15:11:01;9.93;;;7.78;;
3321;SDS011;1673;51.388;7.086;2023-06-10T15:13:31;9.63;;;7.40;;
3321;SDS011;1673;51.388;7.086;2023-06-10T15:16:03;9.90;;;7.70;;
3321;SDS011;1673;51.388;7.086;2023-06-10T15:18:34;12.95;;;7.90;;
3321;SDS011;1673;51.388;7.086;2023-06-10T15:21:03;12.32;;;7.30;;
3321;SDS011;1673;51.388;7.086;2023-06-10T15:23:33;11.77;;;7.60;;